首页
METAR-TAF:

METAR-TAF

机场 :

空军基地

静浜, 日本

纬度: 34-49N, 经度: 138-18E, 海拔: 7米

当前天气观测

该预报发布于4小时和38分钟前的07:35 UTC
风速17节,风向西,有时为27节阵风,在西转西南西转西北之间变化
温度 19°C
湿度 18%
气压 1013 hPa
能见度10公里或以上
少量云层高于2500英尺
散云层高于25000英尺

METAR: RJNY 090735Z 27017G27KT 240V300 9999 FEW025 SCT250 19/M06 Q1013 RMK 1CU025 A2994

时间: 21:13 (12:13 UTC)


TAF: 丢失

超过4000个机场的气象观测和天气预报(METAR&TAF报告)。

可查询的气象台以黄色和红色小点在地图上表示。

将鼠标移到小点上方,可查看气象台名称。

然后点击查看天气观测和预报。

如需切换地图:点击带黑十字的绿色按钮放大地图;点击带横线的绿色按钮缩小地图;或者点击绿色箭头查看邻近地区的地图。


METAR-TAF: